createdAt,value
2016-08-24T00:00:33.936Z,1020.02
2016-08-24T00:01:33.893Z,1020.05
2016-08-24T00:02:33.852Z,1020.06
2016-08-24T00:03:33.806Z,1020.03
2016-08-24T00:04:33.764Z,1020.03
2016-08-24T00:05:33.724Z,1019.99
2016-08-24T00:06:33.672Z,1020
2016-08-24T00:07:33.633Z,1020
2016-08-24T00:08:33.588Z,1020
2016-08-24T00:09:33.544Z,1019.97
2016-08-24T00:10:33.511Z,1019.97
2016-08-24T00:11:33.452Z,1019.97
2016-08-24T00:12:33.414Z,1019.97
2016-08-24T00:13:33.375Z,1019.98
2016-08-24T00:14:33.323Z,1019.98
2016-08-24T00:15:33.479Z,1019.94
2016-08-24T00:16:33.239Z,1019.92
2016-08-24T00:17:33.194Z,1019.92
2016-08-24T00:18:33.152Z,1019.91
2016-08-24T00:19:33.105Z,1019.91
2016-08-24T00:20:33.062Z,1019.9
2016-08-24T00:21:33.015Z,1019.93
2016-08-24T00:22:32.972Z,1019.88
2016-08-24T00:23:32.936Z,1019.89
2016-08-24T00:24:32.898Z,1019.86
2016-08-24T00:25:32.840Z,1019.89
2016-08-24T00:26:32.797Z,1019.88
2016-08-24T00:27:32.757Z,1019.88
2016-08-24T00:28:32.718Z,1019.85
2016-08-24T00:29:32.672Z,1019.85
2016-08-24T00:30:32.623Z,1019.84
2016-08-24T00:31:32.581Z,1019.8
2016-08-24T00:32:32.536Z,1019.81
2016-08-24T00:33:32.493Z,1019.78
2016-08-24T00:34:32.454Z,1019.85
2016-08-24T00:35:32.405Z,1019.81
2016-08-24T00:36:32.357Z,1019.8
2016-08-24T00:37:32.319Z,1019.78
2016-08-24T00:38:32.470Z,1019.81
2016-08-24T00:39:32.429Z,1019.79
2016-08-24T00:40:32.204Z,1019.78
2016-08-24T00:41:32.140Z,1019.76
2016-08-24T00:42:32.094Z,1019.74
2016-08-24T00:43:32.053Z,1019.78
2016-08-24T00:44:32.004Z,1019.81
2016-08-24T00:45:31.964Z,1019.81
2016-08-24T00:46:31.924Z,1019.79
2016-08-24T00:47:31.876Z,1019.82
2016-08-24T00:48:31.833Z,1019.8
2016-08-24T00:49:31.806Z,1019.79
2016-08-24T00:50:31.743Z,1019.78
2016-08-24T00:51:31.703Z,1019.8
2016-08-24T00:52:31.658Z,1019.81
2016-08-24T00:53:31.613Z,1019.82
2016-08-24T00:54:31.575Z,1019.77
2016-08-24T00:55:31.523Z,1019.8
2016-08-24T00:56:31.481Z,1019.81
2016-08-24T00:57:31.437Z,1019.78
2016-08-24T00:58:31.393Z,1019.81
2016-08-24T00:59:31.355Z,1019.79
2016-08-24T01:00:31.304Z,1019.8
2016-08-24T01:01:31.263Z,1019.85
2016-08-24T01:02:31.421Z,1019.81
2016-08-24T01:03:31.176Z,1019.8
2016-08-24T01:04:31.179Z,1019.79
2016-08-24T01:05:31.490Z,1019.79
2016-08-24T01:06:31.044Z,1019.8
2016-08-24T01:07:31.004Z,1019.79
2016-08-24T01:08:30.951Z,1019.78
2016-08-24T01:09:30.912Z,1019.76
2016-08-24T01:10:30.867Z,1019.79
2016-08-24T01:11:30.823Z,1019.77
2016-08-24T01:12:30.782Z,1019.8
2016-08-24T01:13:30.941Z,1019.78
2016-08-24T01:14:30.689Z,1019.77
2016-08-24T01:15:30.664Z,1019.79
2016-08-24T01:16:30.603Z,1019.78
2016-08-24T01:17:30.563Z,1019.75
2016-08-24T01:18:30.514Z,1019.78
2016-08-24T01:19:30.474Z,1019.76
2016-08-24T01:20:30.429Z,1019.76
2016-08-24T01:21:30.384Z,1019.77
2016-08-24T01:22:30.339Z,1019.73
2016-08-24T01:23:30.292Z,1019.76
2016-08-24T01:24:30.251Z,1019.76
2016-08-24T01:25:30.210Z,1019.77
2016-08-24T01:26:30.164Z,1019.77
2016-08-24T01:27:30.118Z,1019.76
2016-08-24T01:28:30.077Z,1019.72
2016-08-24T01:29:30.032Z,1019.73
2016-08-24T01:30:30.192Z,1019.72
2016-08-24T01:31:30.144Z,1019.72
2016-08-24T01:32:29.914Z,1019.74
2016-08-24T01:33:29.858Z,1019.72
2016-08-24T01:34:29.810Z,1019.73
2016-08-24T01:35:29.769Z,1019.68
2016-08-24T01:36:29.724Z,1019.68
2016-08-24T01:37:29.681Z,1019.66
2016-08-24T01:38:29.843Z,1019.7
2016-08-24T01:39:29.593Z,1019.68
2016-08-24T01:40:29.749Z,1019.67
2016-08-24T01:41:29.703Z,1019.63
2016-08-24T01:42:29.463Z,1019.63
2016-08-24T01:43:29.418Z,1019.62
2016-08-24T01:44:29.372Z,1019.63
2016-08-24T01:45:29.330Z,1019.62
2016-08-24T01:46:29.283Z,1019.61
2016-08-24T01:47:29.239Z,1019.63
2016-08-24T01:48:29.196Z,1019.61
2016-08-24T01:49:29.156Z,1019.59
2016-08-24T01:50:29.113Z,1019.6
2016-08-24T01:51:29.063Z,1019.61
2016-08-24T01:52:29.020Z,1019.58
2016-08-24T01:53:28.973Z,1019.56
2016-08-24T01:54:28.933Z,1019.58
2016-08-24T01:55:28.894Z,1019.56
2016-08-24T01:56:28.841Z,1019.54
2016-08-24T01:57:28.799Z,1019.56
2016-08-24T01:58:28.752Z,1019.57
2016-08-24T01:59:28.908Z,1019.54
2016-08-24T02:00:28.671Z,1019.57
2016-08-24T02:01:28.622Z,1019.51
2016-08-24T02:02:28.780Z,1019.56
2016-08-24T02:03:28.533Z,1019.58
2016-08-24T02:04:28.692Z,1019.52
2016-08-24T02:05:28.451Z,1019.56
2016-08-24T02:06:28.403Z,1019.55
2016-08-24T02:07:28.358Z,1019.52
2016-08-24T02:08:28.314Z,1019.55
2016-08-24T02:09:28.267Z,1019.57
2016-08-24T02:10:28.230Z,1019.53
2016-08-24T02:11:28.183Z,1019.54
2016-08-24T02:12:28.143Z,1019.55
2016-08-24T02:13:28.092Z,1019.53
2016-08-24T02:14:28.049Z,1019.51
2016-08-24T02:15:28.004Z,1019.49
2016-08-24T02:16:27.960Z,1019.46
2016-08-24T02:17:27.912Z,1019.49
2016-08-24T02:18:27.873Z,1019.45
2016-08-24T02:19:27.829Z,1019.45
2016-08-24T02:20:27.781Z,1019.45
2016-08-24T02:21:27.943Z,1019.41
2016-08-24T02:22:27.701Z,1019.39
2016-08-24T02:23:27.656Z,1019.41
2016-08-24T02:24:27.610Z,1019.41
2016-08-24T02:25:27.764Z,1019.41
2016-08-24T02:26:27.521Z,1019.39
2016-08-24T02:27:27.472Z,1019.4
2016-08-24T02:28:27.427Z,1019.38
2016-08-24T02:29:27.386Z,1019.38
2016-08-24T02:30:27.339Z,1019.32
2016-08-24T02:31:27.297Z,1019.38
2016-08-24T02:32:27.248Z,1019.33
2016-08-24T02:33:27.209Z,1019.35
2016-08-24T02:34:27.162Z,1019.32
2016-08-24T02:35:27.324Z,1019.31
2016-08-24T02:36:27.088Z,1019.25
2016-08-24T02:37:27.028Z,1019.27
2016-08-24T02:38:26.984Z,1019.33
2016-08-24T02:39:26.940Z,1019.28
2016-08-24T02:40:26.902Z,1019.26
2016-08-24T02:41:26.913Z,1019.31
2016-08-24T02:42:26.807Z,1019.28
2016-08-24T02:43:26.770Z,1019.26
2016-08-24T02:44:26.721Z,1019.26
2016-08-24T02:45:26.673Z,1019.27
2016-08-24T02:46:26.829Z,1019.3
2016-08-24T02:47:26.591Z,1019.26
2016-08-24T02:48:26.545Z,1019.27
2016-08-24T02:49:26.503Z,1019.23
2016-08-24T02:50:26.453Z,1019.25
2016-08-24T02:51:26.411Z,1019.21
2016-08-24T02:52:26.363Z,1019.24
2016-08-24T02:53:26.317Z,1019.24
2016-08-24T02:54:26.274Z,1019.24
2016-08-24T02:55:26.234Z,1019.27
2016-08-24T02:56:26.393Z,1019.26
2016-08-24T02:57:26.143Z,1019.25
2016-08-24T02:58:26.100Z,1019.23
2016-08-24T02:59:26.052Z,1019.22
2016-08-24T03:00:26.021Z,1019.22
2016-08-24T03:01:25.964Z,1019.24
2016-08-24T03:02:26.124Z,1019.22
2016-08-24T03:03:25.873Z,1019.23
2016-08-24T03:04:25.834Z,1019.23
2016-08-24T03:05:25.783Z,1019.27
2016-08-24T03:06:25.745Z,1019.22
2016-08-24T03:07:25.704Z,1019.22
2016-08-24T03:08:25.653Z,1019.23
2016-08-24T03:09:25.608Z,1019.23
2016-08-24T03:10:25.562Z,1019.21
2016-08-24T03:11:25.525Z,1019.18
2016-08-24T03:12:25.474Z,1019.23
2016-08-24T03:13:25.438Z,1019.25
2016-08-24T03:14:25.583Z,1019.27
2016-08-24T03:15:25.344Z,1019.25
2016-08-24T03:16:25.297Z,1019.24
2016-08-24T03:17:25.254Z,1019.18
2016-08-24T03:18:25.409Z,1019.22
2016-08-24T03:19:25.164Z,1019.21
2016-08-24T03:20:25.119Z,1019.17
2016-08-24T03:21:25.074Z,1019.25
2016-08-24T03:22:25.034Z,1019.24
2016-08-24T03:23:24.984Z,1019.23
2016-08-24T03:24:24.945Z,1019.2
2016-08-24T03:25:24.898Z,1019.18
2016-08-24T03:26:24.854Z,1019.21
2016-08-24T03:27:24.810Z,1019.18
2016-08-24T03:28:24.763Z,1019.2
2016-08-24T03:29:24.720Z,1019.2
2016-08-24T03:30:24.675Z,1019.17
2016-08-24T03:31:24.635Z,1019.19
2016-08-24T03:32:24.794Z,1019.19
2016-08-24T03:33:24.542Z,1019.2
2016-08-24T03:34:24.497Z,1019.18
2016-08-24T03:35:24.654Z,1019.16
2016-08-24T03:36:24.407Z,1019.19
2016-08-24T03:37:24.361Z,1019.22
2016-08-24T03:38:24.317Z,1019.16
2016-08-24T03:39:24.275Z,1019.16
2016-08-24T03:40:24.231Z,1019.2
2016-08-24T03:41:24.185Z,1019.21
2016-08-24T03:42:24.143Z,1019.22
2016-08-24T03:43:24.098Z,1019.2
2016-08-24T03:44:24.054Z,1019.18
2016-08-24T03:45:24.006Z,1019.14
2016-08-24T03:46:23.965Z,1019.15
2016-08-24T03:47:23.918Z,1019.16
2016-08-24T03:48:23.875Z,1019.17
2016-08-24T03:49:23.833Z,1019.15
2016-08-24T03:50:23.784Z,1019.14
2016-08-24T03:51:23.753Z,1019.14
2016-08-24T03:52:23.695Z,1019.08
2016-08-24T03:53:23.653Z,1019.15
2016-08-24T03:54:23.607Z,1019.11
2016-08-24T03:55:23.561Z,1019.16
2016-08-24T03:56:23.519Z,1019.15
2016-08-24T03:57:23.484Z,1019.17
2016-08-24T03:58:23.436Z,1019.16
2016-08-24T03:59:23.385Z,1019.15
2016-08-24T04:00:23.341Z,1019.15
2016-08-24T04:01:23.294Z,1019.18
2016-08-24T04:02:23.254Z,1019.13
2016-08-24T04:03:23.204Z,1019.15
2016-08-24T04:04:23.159Z,1019.13
2016-08-24T04:05:23.114Z,1019.14
2016-08-24T04:06:23.074Z,1019.15
2016-08-24T04:07:23.025Z,1019.13
2016-08-24T04:08:22.984Z,1019.12
2016-08-24T04:09:22.945Z,1019.12
2016-08-24T04:10:22.894Z,1019.12
2016-08-24T04:11:22.849Z,1019.15
2016-08-24T04:12:22.801Z,1019.13
2016-08-24T04:13:22.962Z,1019.15
2016-08-24T04:14:22.714Z,1019.15
2016-08-24T04:15:22.672Z,1019.15
2016-08-24T04:16:22.623Z,1019.13
2016-08-24T04:17:22.578Z,1019.12
2016-08-24T04:18:22.537Z,1019.15
2016-08-24T04:19:22.491Z,1019.15
2016-08-24T04:20:22.447Z,1019.16
2016-08-24T04:21:22.404Z,1019.18
2016-08-24T04:22:22.354Z,1019.19
2016-08-24T04:23:22.309Z,1019.17
2016-08-24T04:24:22.477Z,1019.19
2016-08-24T04:25:22.222Z,1019.18
2016-08-24T04:26:22.390Z,1019.18
2016-08-24T04:27:22.135Z,1019.18
2016-08-24T04:28:22.086Z,1019.2
2016-08-24T04:29:22.045Z,1019.15
2016-08-24T04:30:22.000Z,1019.17
2016-08-24T04:31:22.157Z,1019.18
2016-08-24T04:32:21.911Z,1019.19
2016-08-24T04:33:21.860Z,1019.19
2016-08-24T04:34:21.822Z,1019.19
2016-08-24T04:35:21.775Z,1019.2
2016-08-24T04:36:21.727Z,1019.18
2016-08-24T04:37:21.683Z,1019.23
2016-08-24T04:38:21.642Z,1019.21
2016-08-24T04:39:21.593Z,1019.24
2016-08-24T04:40:21.553Z,1019.22
2016-08-24T04:41:21.504Z,1019.25
2016-08-24T04:42:21.460Z,1019.24
2016-08-24T04:43:21.416Z,1019.2
2016-08-24T04:44:21.374Z,1019.22
2016-08-24T04:45:21.326Z,1019.22
2016-08-24T04:46:21.285Z,1019.19
2016-08-24T04:47:21.236Z,1019.21
2016-08-24T04:48:21.194Z,1019.2
2016-08-24T04:49:21.153Z,1019.24
2016-08-24T04:50:21.104Z,1019.19
2016-08-24T04:51:21.260Z,1019.27
2016-08-24T04:52:21.014Z,1019.23
2016-08-24T04:53:20.977Z,1019.24
2016-08-24T04:54:20.923Z,1019.28
2016-08-24T04:55:20.881Z,1019.25
2016-08-24T04:56:20.834Z,1019.26
2016-08-24T04:57:20.791Z,1019.27
2016-08-24T04:58:20.744Z,1019.27
2016-08-24T04:59:20.704Z,1019.24
2016-08-24T05:00:20.653Z,1019.25
2016-08-24T05:01:20.614Z,1019.28
2016-08-24T05:02:20.565Z,1019.27
2016-08-24T05:03:20.524Z,1019.28
2016-08-24T05:04:20.473Z,1019.29
2016-08-24T05:05:20.635Z,1019.32
2016-08-24T05:06:20.385Z,1019.31
2016-08-24T05:07:20.343Z,1019.32
2016-08-24T05:08:20.311Z,1019.3
2016-08-24T05:09:20.252Z,1019.33
2016-08-24T05:10:20.205Z,1019.32
2016-08-24T05:11:20.166Z,1019.34
2016-08-24T05:12:20.125Z,1019.34
2016-08-24T05:13:20.071Z,1019.35
2016-08-24T05:14:20.027Z,1019.36
2016-08-24T05:15:19.983Z,1019.34
2016-08-24T05:16:20.137Z,1019.35
2016-08-24T05:17:19.891Z,1019.32
2016-08-24T05:18:19.846Z,1019.36
2016-08-24T05:19:19.804Z,1019.32
2016-08-24T05:20:19.760Z,1019.32
2016-08-24T05:21:19.914Z,1019.31
2016-08-24T05:22:19.671Z,1019.33
2016-08-24T05:23:19.621Z,1019.34
2016-08-24T05:24:19.583Z,1019.34
2016-08-24T05:25:19.536Z,1019.36
2016-08-24T05:26:19.494Z,1019.4
2016-08-24T05:27:19.454Z,1019.37
2016-08-24T05:28:19.402Z,1019.4
2016-08-24T05:29:19.361Z,1019.38
2016-08-24T05:30:19.310Z,1019.43
2016-08-24T05:31:19.264Z,1019.39
2016-08-24T05:32:19.426Z,1019.42
2016-08-24T05:33:19.175Z,1019.46
2016-08-24T05:34:19.339Z,1019.42
2016-08-24T05:35:19.084Z,1019.45
2016-08-24T05:36:19.042Z,1019.46
2016-08-24T05:37:18.995Z,1019.47
2016-08-24T05:38:18.955Z,1019.41
2016-08-24T05:39:18.914Z,1019.45
2016-08-24T05:40:18.865Z,1019.43
2016-08-24T05:41:18.822Z,1019.49
2016-08-24T05:42:18.773Z,1019.49
2016-08-24T05:43:18.734Z,1019.45
2016-08-24T05:44:18.687Z,1019.46
2016-08-24T05:45:18.644Z,1019.46
2016-08-24T05:46:18.595Z,1019.48
2016-08-24T05:47:18.551Z,1019.45
2016-08-24T05:48:18.509Z,1019.43
2016-08-24T05:49:18.465Z,1019.45
2016-08-24T05:50:18.415Z,1019.42
2016-08-24T05:51:18.368Z,1019.44
2016-08-24T05:52:18.325Z,1019.4
2016-08-24T05:53:18.283Z,1019.41
2016-08-24T05:54:18.436Z,1019.45
2016-08-24T05:55:18.193Z,1019.43
2016-08-24T05:56:18.150Z,1019.44
2016-08-24T05:57:18.101Z,1019.49
2016-08-24T05:58:18.060Z,1019.47
2016-08-24T05:59:18.014Z,1019.45
2016-08-24T06:00:17.968Z,1019.42
2016-08-24T06:01:17.926Z,1019.45
2016-08-24T06:02:17.881Z,1019.43
2016-08-24T06:03:17.836Z,1019.47
2016-08-24T06:04:17.797Z,1019.44
2016-08-24T06:05:17.744Z,1019.46
2016-08-24T06:06:17.701Z,1019.45
2016-08-24T06:07:17.857Z,1019.51
2016-08-24T06:08:17.615Z,1019.49
2016-08-24T06:09:17.566Z,1019.51
2016-08-24T06:10:17.526Z,1019.53
2016-08-24T06:11:17.476Z,1019.54
2016-08-24T06:12:17.436Z,1019.49
2016-08-24T06:13:17.392Z,1019.54
2016-08-24T06:14:17.345Z,1019.55
2016-08-24T06:15:17.302Z,1019.57
2016-08-24T06:16:17.256Z,1019.52
2016-08-24T06:17:17.213Z,1019.52
2016-08-24T06:18:17.165Z,1019.57
2016-08-24T06:19:17.123Z,1019.53
2016-08-24T06:20:17.083Z,1019.52
2016-08-24T06:21:17.035Z,1019.51
2016-08-24T06:22:16.986Z,1019.53
2016-08-24T06:23:16.945Z,1019.5
2016-08-24T06:24:16.904Z,1019.53
2016-08-24T06:25:16.866Z,1019.52
2016-08-24T06:26:16.812Z,1019.53
2016-08-24T06:27:16.766Z,1019.53
2016-08-24T06:28:16.725Z,1019.53
2016-08-24T06:29:16.685Z,1019.52
2016-08-24T06:30:16.634Z,1019.53
2016-08-24T06:31:16.594Z,1019.48
2016-08-24T06:32:16.545Z,1019.48
2016-08-24T06:33:16.707Z,1019.54
2016-08-24T06:34:16.660Z,1019.5
2016-08-24T06:35:16.675Z,1019.51
2016-08-24T06:36:16.373Z,1019.5
2016-08-24T06:37:16.324Z,1019.54
2016-08-24T06:38:16.280Z,1019.52
2016-08-24T06:39:16.234Z,1019.53
2016-08-24T06:40:16.194Z,1019.52
2016-08-24T06:41:16.153Z,1019.52
2016-08-24T06:42:16.102Z,1019.54
2016-08-24T06:43:16.058Z,1019.56
2016-08-24T06:44:16.021Z,1019.58
2016-08-24T06:45:15.973Z,1019.59
2016-08-24T06:46:15.927Z,1019.57
2016-08-24T06:47:15.882Z,1019.62
2016-08-24T06:48:15.837Z,1019.58
2016-08-24T06:49:16.005Z,1019.64
2016-08-24T06:50:15.759Z,1019.63
2016-08-24T06:51:15.709Z,1019.63
2016-08-24T06:52:15.665Z,1019.61
2016-08-24T06:53:15.824Z,1019.64
2016-08-24T06:54:15.575Z,1019.65
2016-08-24T06:55:15.530Z,1019.59
2016-08-24T06:56:15.494Z,1019.62
2016-08-24T06:57:15.449Z,1019.62
2016-08-24T06:58:15.405Z,1019.58
2016-08-24T06:59:15.366Z,1019.57
2016-08-24T07:00:15.315Z,1019.58
2016-08-24T07:01:15.269Z,1019.54
2016-08-24T07:02:15.222Z,1019.6
2016-08-24T07:03:15.199Z,1019.58
2016-08-24T07:04:15.139Z,1019.58
2016-08-24T07:05:15.094Z,1019.58
2016-08-24T07:09:14.923Z,1019.6
2016-08-24T07:10:14.884Z,1019.59
2016-08-24T07:11:14.844Z,1019.6
2016-08-24T07:12:14.806Z,1019.58
2016-08-24T07:13:14.752Z,1019.56
2016-08-24T07:14:14.735Z,1019.55
2016-08-24T07:15:14.664Z,1019.54
2016-08-24T07:16:14.623Z,1019.54
2016-08-24T07:17:14.589Z,1019.52
2016-08-24T07:18:14.538Z,1019.5
2016-08-24T07:19:14.505Z,1019.47
2016-08-24T07:20:14.642Z,1019.46
2016-08-24T07:21:14.446Z,1019.46
2016-08-24T07:22:14.787Z,1019.42
2016-08-24T07:23:14.339Z,1019.42
2016-08-24T07:24:14.487Z,1019.39
2016-08-24T07:25:14.454Z,1019.4
2016-08-24T07:26:14.197Z,1019.43
2016-08-24T07:27:14.145Z,1019.38
2016-08-24T07:28:14.107Z,1019.4
2016-08-24T07:29:14.058Z,1019.4
2016-08-24T07:30:14.024Z,1019.4
2016-08-24T07:31:13.996Z,1019.43
2016-08-24T07:32:13.934Z,1019.41
2016-08-24T07:33:13.894Z,1019.4
2016-08-24T07:34:13.863Z,1019.45
2016-08-24T07:35:13.804Z,1019.42
2016-08-24T07:36:13.763Z,1019.35
2016-08-24T07:37:13.727Z,1019.38
2016-08-24T07:38:13.673Z,1019.38
2016-08-24T07:39:13.828Z,1019.42
2016-08-24T07:40:13.787Z,1019.4
2016-08-24T07:41:13.568Z,1019.4
2016-08-24T07:42:13.503Z,1019.43
2016-08-24T07:43:13.458Z,1019.41
2016-08-24T07:44:13.414Z,1019.4
2016-08-24T07:45:13.382Z,1019.37
2016-08-24T07:46:13.528Z,1019.39
2016-08-24T07:47:13.287Z,1019.4
2016-08-24T07:48:13.245Z,1019.39
2016-08-24T07:49:13.200Z,1019.39
2016-08-24T07:50:13.160Z,1019.37
2016-08-24T07:51:13.122Z,1019.39
2016-08-24T07:52:13.077Z,1019.36
2016-08-24T07:53:13.035Z,1019.39
2016-08-24T07:54:12.990Z,1019.4
2016-08-24T07:55:12.951Z,1019.41
2016-08-24T07:56:13.164Z,1019.36
2016-08-24T07:57:12.861Z,1019.39
2016-08-24T07:58:12.820Z,1019.36
2016-08-24T07:59:12.778Z,1019.37
2016-08-24T08:00:12.953Z,1019.35
2016-08-24T08:01:12.894Z,1019.35
2016-08-24T08:02:13.061Z,1019.38
2016-08-24T08:03:12.616Z,1019.3
2016-08-24T08:04:12.590Z,1019.35
2016-08-24T08:05:12.529Z,1019.29
2016-08-24T08:06:12.491Z,1019.32
2016-08-24T08:07:12.655Z,1019.28
2016-08-24T08:08:12.598Z,1019.28
2016-08-24T08:09:12.553Z,1019.27
2016-08-24T08:10:12.325Z,1019.28
2016-08-24T08:11:12.500Z,1019.29
2016-08-24T08:12:12.250Z,1019.29
2016-08-24T08:13:12.457Z,1019.26
2016-08-24T08:14:12.162Z,1019.28
2016-08-24T08:15:12.371Z,1019.34
2016-08-24T08:16:12.088Z,1019.25
2016-08-24T08:17:12.035Z,1019.26
2016-08-24T08:18:11.994Z,1019.26
2016-08-24T08:19:11.944Z,1019.21
2016-08-24T08:20:11.920Z,1019.24
2016-08-24T08:21:11.864Z,1019.19
2016-08-24T08:22:11.909Z,1019.19
2016-08-24T08:23:11.832Z,1019.13
2016-08-24T08:24:11.745Z,1019.13
2016-08-24T08:25:11.694Z,1019.15
2016-08-24T08:26:11.663Z,1019.18
2016-08-24T08:27:11.613Z,1019.16
2016-08-24T08:28:11.683Z,1019.14
2016-08-24T08:29:11.531Z,1019.12
2016-08-24T08:30:11.694Z,1019.16
2016-08-24T08:31:11.465Z,1019.13
2016-08-24T08:32:11.399Z,1019.11
2016-08-24T08:33:11.364Z,1019.1
2016-08-24T08:34:11.323Z,1019.17
2016-08-24T08:35:11.294Z,1019.1
2016-08-24T08:36:11.239Z,1019.08
2016-08-24T08:37:11.213Z,1019.08
2016-08-24T08:38:11.167Z,1019.13
2016-08-24T08:39:11.110Z,1019.14
2016-08-24T08:40:11.068Z,1019.08
2016-08-24T08:41:11.049Z,1019.1
2016-08-24T08:42:10.995Z,1019.05
2016-08-24T08:43:10.949Z,1019.02
2016-08-24T08:44:10.907Z,1019.04
2016-08-24T08:45:10.864Z,1019.08
2016-08-24T08:46:10.834Z,1019.05
2016-08-24T08:47:10.838Z,1019.11
2016-08-24T08:48:10.737Z,1019.08
2016-08-24T08:49:10.783Z,1019.11
2016-08-24T08:50:10.670Z,1019.08
2016-08-24T08:51:10.819Z,1019.09
2016-08-24T08:52:10.578Z,1019.14
2016-08-24T08:53:10.542Z,1019.11
2016-08-24T08:54:10.509Z,1019.12
2016-08-24T08:55:10.453Z,1019.15
2016-08-24T08:56:10.422Z,1019.12
2016-08-24T08:57:10.374Z,1019.15
2016-08-24T08:58:10.350Z,1019.09
2016-08-24T08:59:10.289Z,1019.12
2016-08-24T09:00:10.245Z,1019.14
2016-08-24T09:01:10.211Z,1019.13
2016-08-24T09:02:10.169Z,1019.14
2016-08-24T09:03:10.127Z,1019.22
2016-08-24T09:04:10.335Z,1019.22
2016-08-24T09:05:10.040Z,1019.11
2016-08-24T09:06:10.005Z,1019.15
2016-08-24T09:07:09.970Z,1019.13
2016-08-24T09:08:09.932Z,1019.12
2016-08-24T09:09:09.910Z,1019.17
2016-08-24T09:10:09.890Z,1019.12
2016-08-24T09:11:09.817Z,1019.1
2016-08-24T09:12:09.770Z,1019.09
2016-08-24T09:13:09.917Z,1019.11
2016-08-24T09:14:09.893Z,1019.13
2016-08-24T09:15:09.639Z,1019.11
2016-08-24T09:16:09.593Z,1019.11
2016-08-24T09:17:09.555Z,1019.11
2016-08-24T09:18:09.608Z,1019.06
2016-08-24T09:19:09.484Z,1019.08
2016-08-24T09:20:09.429Z,1019.11
2016-08-24T09:21:09.388Z,1019.1
2016-08-24T09:22:09.362Z,1019.06
2016-08-24T09:23:09.314Z,1019.05
2016-08-24T09:24:09.271Z,1019.05
2016-08-24T09:25:09.224Z,1019.06
2016-08-24T09:26:09.189Z,1019.04
2016-08-24T09:27:09.153Z,1019.03
2016-08-24T09:28:09.113Z,1018.99
2016-08-24T09:29:09.068Z,1018.94
2016-08-24T09:30:09.038Z,1018.96
2016-08-24T09:31:09.001Z,1018.94
2016-08-24T09:32:08.950Z,1018.96
2016-08-24T09:33:08.921Z,1018.94
2016-08-24T09:34:08.862Z,1018.89
2016-08-24T09:35:08.868Z,1018.93
2016-08-24T09:36:08.792Z,1018.96
2016-08-24T09:37:08.758Z,1018.96
2016-08-24T09:38:08.704Z,1018.9
2016-08-24T09:39:08.662Z,1018.89
2016-08-24T09:40:08.622Z,1018.92
2016-08-24T09:41:08.581Z,1018.83
2016-08-24T09:42:08.542Z,1018.88
2016-08-24T09:43:08.506Z,1018.91
2016-08-24T09:44:08.459Z,1018.89
2016-08-24T09:45:08.424Z,1018.85
2016-08-24T09:46:08.573Z,1018.91
2016-08-24T09:47:08.342Z,1018.88
2016-08-24T09:48:08.497Z,1018.89
2016-08-24T09:49:08.259Z,1018.85
2016-08-24T09:50:08.216Z,1018.85
2016-08-24T09:51:08.182Z,1018.84
2016-08-24T09:52:08.133Z,1018.84
2016-08-24T09:53:08.101Z,1018.83
2016-08-24T09:54:08.060Z,1018.84
2016-08-24T09:55:08.025Z,1018.84
2016-08-24T09:56:07.982Z,1018.81
2016-08-24T09:57:07.940Z,1018.82
2016-08-24T09:58:07.894Z,1018.86
2016-08-24T09:59:08.054Z,1018.76
2016-08-24T10:00:07.867Z,1018.8
2016-08-24T10:01:07.782Z,1018.8
2016-08-24T10:02:07.736Z,1018.85
2016-08-24T10:03:07.699Z,1018.85
2016-08-24T10:04:07.654Z,1018.8
2016-08-24T10:05:07.634Z,1018.78
2016-08-24T10:06:07.577Z,1018.85
2016-08-24T10:07:07.550Z,1018.76
2016-08-24T10:08:07.496Z,1018.79
2016-08-24T10:09:07.459Z,1018.81
2016-08-24T10:10:07.417Z,1018.78
2016-08-24T10:11:07.387Z,1018.82
2016-08-24T10:12:07.338Z,1018.81
2016-08-24T10:13:07.295Z,1018.75
2016-08-24T10:14:07.250Z,1018.81
2016-08-24T10:15:07.215Z,1018.72
2016-08-24T10:16:07.171Z,1018.77
2016-08-24T10:17:07.133Z,1018.75
2016-08-24T10:18:07.092Z,1018.76
2016-08-24T10:19:07.060Z,1018.76
2016-08-24T10:20:07.030Z,1018.75
2016-08-24T10:21:06.996Z,1018.78
2016-08-24T10:22:07.076Z,1018.79
2016-08-24T10:23:06.980Z,1018.81
2016-08-24T10:24:06.853Z,1018.74
2016-08-24T10:25:06.930Z,1018.72
2016-08-24T10:26:06.790Z,1018.68
2016-08-24T10:27:06.736Z,1018.71
2016-08-24T10:28:06.707Z,1018.75
2016-08-24T10:29:06.663Z,1018.72
2016-08-24T10:30:06.628Z,1018.69
2016-08-24T10:31:06.586Z,1018.69
2016-08-24T10:32:06.562Z,1018.72
2016-08-24T10:33:06.497Z,1018.68
2016-08-24T10:34:06.463Z,1018.65
2016-08-24T10:35:06.421Z,1018.66
2016-08-24T10:36:06.387Z,1018.68
2016-08-24T10:37:06.336Z,1018.61
2016-08-24T10:38:06.313Z,1018.68
2016-08-24T10:39:06.259Z,1018.62
2016-08-24T10:40:06.212Z,1018.68
2016-08-24T10:41:06.180Z,1018.61
2016-08-24T10:42:06.153Z,1018.57
2016-08-24T10:43:06.105Z,1018.54
2016-08-24T10:44:06.069Z,1018.53
2016-08-24T10:45:06.026Z,1018.51
2016-08-24T10:46:05.975Z,1018.52
2016-08-24T10:47:05.937Z,1018.51
2016-08-24T10:48:05.902Z,1018.44
2016-08-24T10:49:05.867Z,1018.49
2016-08-24T10:50:06.014Z,1018.5
2016-08-24T10:51:05.789Z,1018.47
2016-08-24T10:52:05.743Z,1018.45
2016-08-24T10:53:05.705Z,1018.51
2016-08-24T10:54:05.654Z,1018.42
2016-08-24T10:55:05.615Z,1018.42
2016-08-24T10:56:05.799Z,1018.4
2016-08-24T10:57:05.542Z,1018.44
2016-08-24T10:58:05.523Z,1018.45
2016-08-24T10:59:05.675Z,1018.4
2016-08-24T11:00:05.443Z,1018.43
2016-08-24T11:01:05.394Z,1018.38
2016-08-24T11:02:05.351Z,1018.38
2016-08-24T11:03:05.317Z,1018.4
2016-08-24T11:04:05.477Z,1018.34
2016-08-24T11:05:05.220Z,1018.35
2016-08-24T11:06:05.212Z,1018.35
2016-08-24T11:07:05.171Z,1018.4
2016-08-24T11:08:05.104Z,1018.32
2016-08-24T11:09:05.079Z,1018.31
2016-08-24T11:10:05.025Z,1018.34
2016-08-24T11:11:05.188Z,1018.25
2016-08-24T11:12:05.132Z,1018.26
2016-08-24T11:13:04.981Z,1018.25
2016-08-24T11:14:04.860Z,1018.27
2016-08-24T11:15:04.912Z,1018.23
2016-08-24T11:16:04.787Z,1018.28
2016-08-24T11:17:04.755Z,1018.22
2016-08-24T11:18:04.712Z,1018.22
2016-08-24T11:19:04.665Z,1018.21
2016-08-24T11:20:04.630Z,1018.2
2016-08-24T11:21:04.597Z,1018.18
2016-08-24T11:22:04.623Z,1018.23
2016-08-24T11:23:04.517Z,1018.2
2016-08-24T11:24:04.663Z,1018.1
2016-08-24T11:25:04.431Z,1018.21
2016-08-24T11:26:04.387Z,1018.19
2016-08-24T11:27:04.351Z,1018.13
2016-08-24T11:28:04.310Z,1018.11
2016-08-24T11:29:04.282Z,1018.15
2016-08-24T11:30:04.476Z,1018.14
2016-08-24T11:31:04.201Z,1018.06
2016-08-24T11:32:04.166Z,1018.18
2016-08-24T11:33:04.122Z,1018.17
2016-08-24T11:34:04.080Z,1018.11
2016-08-24T11:35:04.038Z,1018.11
2016-08-24T11:36:03.997Z,1018.06
2016-08-24T11:37:03.954Z,1018.04
2016-08-24T11:38:04.114Z,1018.08
2016-08-24T11:39:03.873Z,1017.99
2016-08-24T11:40:03.845Z,1018.08
2016-08-24T11:41:04.003Z,1018.05
2016-08-24T11:42:03.918Z,1018.03
2016-08-24T11:43:03.725Z,1017.96
2016-08-24T11:44:03.937Z,1017.95
2016-08-24T11:45:03.935Z,1017.96
2016-08-24T11:46:03.609Z,1017.94
2016-08-24T11:47:03.588Z,1017.95
2016-08-24T11:48:03.600Z,1017.9
2016-08-24T11:49:03.513Z,1017.87
2016-08-24T11:50:03.449Z,1017.85
2016-08-24T11:51:03.413Z,1017.9
2016-08-24T11:52:03.371Z,1017.89
2016-08-24T11:53:03.353Z,1017.9
2016-08-24T11:54:03.300Z,1017.86
2016-08-24T11:55:03.255Z,1017.85
2016-08-24T11:56:03.215Z,1017.86
2016-08-24T11:57:03.184Z,1017.83
2016-08-24T11:58:03.257Z,1017.85
2016-08-24T11:59:03.123Z,1017.83
2016-08-24T12:00:03.072Z,1017.83
2016-08-24T12:01:03.031Z,1017.84
2016-08-24T12:02:02.986Z,1017.79
2016-08-24T12:03:02.950Z,1017.78
2016-08-24T12:04:02.905Z,1017.79
2016-08-24T12:05:02.872Z,1017.79
2016-08-24T12:06:02.833Z,1017.74
2016-08-24T12:07:03.000Z,1017.78
2016-08-24T12:08:02.752Z,1017.79
2016-08-24T12:09:02.713Z,1017.79
2016-08-24T12:10:02.667Z,1017.76
2016-08-24T12:11:02.664Z,1017.82